METAR Data
IDs: Format: Raw Decoded Include TAF

Data at: 2124 UTC 06 Dec 2019

KHVS 062115Z AUTO 00000KT 10SM SCT065 OVC080 10/10 A3018 RMK AO2
KHVS 062055Z AUTO 00000KT 10SM BKN080 11/10 A3018 RMK AO2 P0001
KHVS 062035Z AUTO 00000KT 10SM CLR 11/10 A3017 RMK AO2
KHVS 062015Z AUTO 00000KT 6SM -RA FEW046 FEW055 FEW065 11/10 A3018 RMK AO2
KHVS 061955Z AUTO 00000KT 6SM -RA FEW034 SCT047 BKN050 10/09 A3019 RMK AO2 P0001
KHVS 061935Z AUTO 00000KT 4SM -RA SCT035 BKN046 OVC070 12/08 A3020 RMK AO2
KHVS 061915Z AUTO 00000KT 10SM OVC045 14/06 A3020 RMK AO2
KHVS 061855Z AUTO 00000KT 10SM OVC045 14/06 A3020 RMK AO2
KHVS 061835Z AUTO 00000KT 10SM OVC043 14/06 A3020 RMK AO2
KHVS 061815Z AUTO 00000KT 10SM BKN043 OVC050 15/06 A3020 RMK AO2
KHVS 061755Z AUTO 00000KT 10SM SCT044 SCT050 SCT120 14/05 A3021 RMK AO2
KHVS 061735Z AUTO 25004KT 10SM FEW110 14/05 A3021 RMK AO2
KHVS 061715Z AUTO 24004KT 10SM SCT110 14/05 A3021 RMK AO2
KHVS 061655Z AUTO 24003KT 10SM SCT110 13/05 A3022 RMK AO2
KHVS 061635Z AUTO 23003KT 10SM SCT110 13/04 A3023 RMK AO2
KHVS 061615Z AUTO 00000KT 10SM CLR 13/05 A3024 RMK AO2
KHVS 061555Z AUTO 00000KT 10SM CLR 13/04 A3024 RMK AO2
KHVS 061535Z AUTO VRB04KT 10SM CLR 13/04 A3024 RMK AO2
KHVS 061515Z AUTO 19004KT 10SM CLR 12/04 A3025 RMK AO2
KHVS 061455Z AUTO 00000KT 10SM CLR 10/04 A3025 RMK AO2
KHVS 061435Z AUTO 10SM CLR RMK AO2 PNO PWINO TSNO
KHVS 061415Z AUTO 00000KT 10SM FEW120 09/04 A3025 RMK AO2
KHVS 061355Z AUTO 00000KT 10SM SCT120 07/04 A3025 RMK AO2
KHVS 061335Z AUTO 00000KT 10SM BKN110 06/03 A3025 RMK AO2
KHVS 061315Z AUTO 00000KT 10SM OVC110 06/03 A3025 RMK AO2
KHVS 061255Z AUTO 00000KT 10SM BKN120 06/03 A3025 RMK AO2
KHVS 061235Z AUTO 00000KT 10SM FEW120 05/03 A3025 RMK AO2
KHVS 061215Z AUTO 00000KT 10SM CLR 05/03 A3025 RMK AO2
KHVS 061155Z AUTO 00000KT 10SM CLR 05/03 A3025 RMK AO2
KHVS 061135Z AUTO 00000KT 10SM FEW120 05/03 A3024 RMK AO2
KHVS 061115Z AUTO 00000KT 10SM SCT120 04/01 A3023 RMK AO2
KHVS 061055Z AUTO 00000KT 10SM CLR 03/01 A3024 RMK AO2
KHVS 061035Z AUTO 00000KT 10SM CLR 02/00 A3023 RMK AO2
KHVS 061015Z AUTO 00000KT 10SM CLR 03/01 A3023 RMK AO2
KHVS 060955Z AUTO 00000KT 10SM CLR 05/00 A3022 RMK AO2
KHVS 060935Z AUTO 00000KT 10SM CLR 04/00 A3022 RMK AO2
KHVS 060915Z AUTO 00000KT 10SM CLR 04/00 A3022 RMK AO2
KHVS 060855Z AUTO 00000KT 10SM CLR 04/M01 A3022 RMK AO2
KHVS 060835Z AUTO 00000KT 8SM CLR 02/M01 A3022 RMK AO2
KHVS 060815Z AUTO 00000KT 10SM CLR 02/M00 A3022 RMK AO2
KHVS 060755Z AUTO 00000KT 10SM CLR 03/M00 A3022 RMK AO2
KHVS 060735Z AUTO 00000KT 10SM CLR 04/M01 A3022 RMK AO2
KHVS 060715Z AUTO 00000KT 10SM CLR 05/M02 A3022 RMK AO2
KHVS 060655Z AUTO 00000KT 10SM CLR 05/M02 A3021 RMK AO2
KHVS 060635Z AUTO 00000KT 10SM CLR 05/M02 A3022 RMK AO2
KHVS 060615Z AUTO 00000KT 9SM CLR 04/M02 A3022 RMK AO2
KHVS 060555Z AUTO 00000KT 9SM CLR 05/M02 A3022 RMK AO2
KHVS 060535Z AUTO 00000KT 9SM CLR 05/M02 A3022 RMK AO2
KHVS 060515Z AUTO 00000KT 10SM CLR 06/M02 A3022 RMK AO2
KHVS 060455Z AUTO 00000KT 10SM CLR 05/M02 A3022 RMK AO2
KHVS 060435Z AUTO 00000KT 9SM CLR 06/M02 A3022 RMK AO2
KHVS 060415Z AUTO 00000KT 10SM CLR 06/M02 A3022 RMK AO2
KHVS 060355Z AUTO 00000KT 8SM CLR 06/M02 A3022 RMK AO2
KHVS 060335Z AUTO 00000KT 10SM CLR 06/M02 A3021 RMK AO2
KHVS 060315Z AUTO 00000KT 7SM CLR 06/M02 A3021 RMK AO2
KHVS 060255Z AUTO 00000KT 7SM CLR 06/M02 A3021 RMK AO2
KHVS 060235Z AUTO 00000KT 8SM CLR 06/M02 A3021 RMK AO2
KHVS 060215Z AUTO 00000KT 6SM HZ CLR 05/M02 A3020 RMK AO2
KHVS 060155Z AUTO 00000KT 4SM HZ CLR 04/M01 A3020 RMK AO2
KHVS 060135Z AUTO 00000KT 10SM CLR 04/M02 A3019 RMK AO2
KHVS 060115Z AUTO 00000KT 7SM CLR 06/M02 A3019 RMK AO2
KHVS 060055Z AUTO 00000KT 9SM CLR 03/M02 A3018 RMK AO2
KHVS 060035Z AUTO 00000KT 10SM CLR 04/M01 A3018 RMK AO2
KHVS 060015Z AUTO 00000KT 10SM CLR 05/M00 A3018 RMK AO2
KHVS 052355Z AUTO 00000KT 10SM CLR 07/M01 A3016 RMK AO2
KHVS 052335Z AUTO 00000KT 7SM CLR 07/M02 A3016 RMK AO2
KHVS 052315Z AUTO 00000KT 10SM FEW022 FEW036 07/M01 A3015 RMK AO2
KHVS 052255Z AUTO 00000KT 10SM CLR 06/00 A3014 RMK AO2
KHVS 052235Z AUTO 00000KT 10SM CLR 09/M00 A3013 RMK AO2
KHVS 052215Z AUTO 00000KT 10SM CLR 09/01 A3012 RMK AO2
KHVS 052155Z AUTO 00000KT 10SM CLR 11/M00 A3011 RMK AO2
KHVS 052135Z AUTO 00000KT 10SM CLR 15/M03 A3010 RMK AO2
KHVS 052115Z AUTO 00000KT 10SM CLR 16/M04 A3010 RMK AO2
KHVS 052055Z AUTO 00000KT 10SM CLR 17/M05 A3009 RMK AO2
KHVS 052035Z AUTO 00000KT 10SM CLR 17/M04 A3009 RMK AO2
KHVS 052015Z AUTO 24004KT 10SM CLR 17/M04 A3009 RMK AO2
KHVS 051955Z AUTO VRB04KT 10SM CLR 17/M05 A3008 RMK AO2
KHVS 051935Z AUTO VRB04KT 10SM CLR 17/M04 A3008 RMK AO2
KHVS 051915Z AUTO 00000KT 10SM CLR 17/M04 A3008 RMK AO2
KHVS 051855Z AUTO 00000KT 10SM CLR 16/M04 A3008 RMK AO2
KHVS 051835Z AUTO 00000KT 10SM CLR 16/M04 A3009 RMK AO2 LTG DSNT NE AND E
KHVS 051815Z AUTO VRB04KT 10SM CLR 15/M03 A3009 RMK AO2
KHVS 051755Z AUTO 00000KT 10SM CLR 15/M03 A3009 RMK AO2
KHVS 051735Z AUTO 00000KT 10SM CLR 15/M02 A3009 RMK AO2
KHVS 051715Z AUTO VRB05KT 10SM CLR 14/M02 A3010 RMK AO2
KHVS 051655Z AUTO 00000KT 10SM CLR 14/M03 A3010 RMK AO2
KHVS 051635Z AUTO 03005KT 10SM CLR 14/M04 A3011 RMK AO2
KHVS 051615Z AUTO 02008KT 360V060 10SM CLR 14/M02 A3012 RMK AO2
KHVS 051555Z AUTO 03007KT 360V070 10SM CLR 14/M02 A3011 RMK AO2
KHVS 051535Z AUTO 03006KT 10SM CLR 14/M02 A3010 RMK AO2
KHVS 051515Z AUTO VRB05G13KT 10SM CLR 13/M02 A3009 RMK AO2
KHVS 051455Z AUTO 00000G10KT 10SM CLR 13/M02 A3009 RMK AO2
KHVS 051435Z AUTO 35007KT 300V010 10SM CLR 13/M03 A3008 RMK AO2
KHVS 051415Z AUTO VRB05G11KT 10SM CLR 13/M02 A3007 RMK AO2
KHVS 051355Z AUTO VRB04KT 10SM CLR 11/M01 A3006 RMK AO2
KHVS 051335Z AUTO VRB03KT 10SM CLR 10/M01 A3006 RMK AO2
KHVS 051315Z AUTO 00000KT 10SM CLR 09/M01 A3006 RMK AO2
KHVS 051255Z AUTO 00000KT 10SM CLR 08/M01 A3004 RMK AO2
KHVS 051235Z AUTO 00000KT 10SM CLR 06/M01 A3003 RMK AO2
KHVS 051215Z AUTO 00000KT 10SM CLR 03/M00 A3002 RMK AO2
KHVS 051155Z AUTO 00000KT 10SM CLR 06/M01 A3001 RMK AO2
KHVS 051135Z AUTO 28003KT 10SM CLR 06/M01 A2999 RMK AO2 LTG DSNT SE AND SW
KHVS 051115Z AUTO 00000KT 10SM CLR 05/M01 A2999 RMK AO2
KHVS 051055Z AUTO 00000KT 10SM CLR 06/M01 A2997 RMK AO2
KHVS 051035Z AUTO 00000KT 10SM CLR 06/M01 A2996 RMK AO2
KHVS 051015Z AUTO 00000KT 10SM CLR 05/M00 A2994 RMK AO2
KHVS 050955Z AUTO 00000KT 10SM CLR 05/M01 A2993 RMK AO2
KHVS 050935Z AUTO 00000KT 10SM CLR 05/M01 A2993 RMK AO2